21kousinmaru — JD2168 — position and weather

sailwx.info

Track history (hours):
 
Tides and Currents Weather Stations Pressure Air Temp Water Temp Dewpoint Dewpoint Depression Visibility Wind Speed Wind Dir Waves Ship Positions

21kousinmaru

Last reported at 2017-Nov-23 01:43 UTC. Time now 2017-Nov-23 16:55 UTC.
Position N 34°06' E 134°59'.

Length 68 m; draft 4.5 m.

MMSI: 431501835.

Date/timePositionNaut miles runAvg speedWind from/ knotsBaromVisibWave heightAir tempDewpointWater temp
2017-Nov-23 01:43N 34°06' E 134°59'  
2017-Nov-19 20:59N 35°29' E 139°56'0 0.1
2017-Nov-19 20:26N 35°29' E 139°56'0 0.0
2017-Nov-19 19:58N 35°29' E 139°56'0 0.0
2017-Nov-19 19:27N 35°29' E 139°56'0 0.0
2017-Nov-19 19:00N 35°29' E 139°56'0 0.0
2017-Nov-19 18:29N 35°29' E 139°56'3 5.7
2017-Nov-19 17:57N 35°28' E 139°52'511.9
2017-Nov-19 17:30N 35°25' E 139°47'612.2
2017-Nov-19 17:00N 35°19' E 139°44'611.7
2017-Nov-19 16:30N 35°14' E 139°47'611.3
2017-Nov-19 16:00N 35°09' E 139°45'510.3
2017-Nov-19 15:30N 35°04' E 139°43'510.8
2017-Nov-19 15:00N 35°01' E 139°37'610.9
2017-Nov-19 14:27N 34°57' E 139°31'  
2017-Nov-15 07:11N 34°37' E 135°02'211.8
2017-Nov-15 07:00N 34°36' E 135°05'511.2
2017-Nov-15 06:30N 34°34' E 135°11'711.4
2017-Nov-15 05:56N 34°33' E 135°18'1 2.0
2017-Nov-15 05:30N 34°32' E 135°19'0 0.0
2017-Nov-15 05:01N 34°32' E 135°19'3 6.1
2017-Nov-15 04:30N 34°33' E 135°23'2 0.3
2017-Nov-14 22:54N 34°33' E 135°25'3 7.8
2017-Nov-14 22:30N 34°33' E 135°21'2 1.5
2017-Nov-14 21:20N 34°32' E 135°20'0 0.0
2017-Nov-14 20:50N 34°32' E 135°20'0 0.1
2017-Nov-14 20:26N 34°32' E 135°20'0 0.0
2017-Nov-14 19:44N 34°32' E 135°20'0 0.0
2017-Nov-14 19:14N 34°32' E 135°20'0 0.0
2017-Nov-14 18:56N 34°32' E 135°20'0 0.0
2017-Nov-14 18:20N 34°32' E 135°20'0 0.0
2017-Nov-14 17:56N 34°32' E 135°20'0 0.1
2017-Nov-14 17:26N 34°32' E 135°20'0 0.0
2017-Nov-14 16:50N 34°32' E 135°20'2 6.4
2017-Nov-14 16:30N 34°31' E 135°18'612.1
2017-Nov-14 15:59N 34°27' E 135°12'611.6
2017-Nov-14 15:29N 34°23' E 135°07'1110.1
2017-Nov-14 14:25N 34°14' E 134°60'511.2
2017-Nov-14 13:59N 34°09' E 135°00'  
Track history (hours):
 
Tides and Currents Weather Stations Pressure Air Temp Water Temp Dewpoint Dewpoint Depression Visibility Wind Speed Wind Dir Waves Ship Positions

21kousinmaru

Last reported at 2017-Nov-23 01:43 UTC. Time now 2017-Nov-23 16:55 UTC.
Position N 34°06' E 134°59'.

Length 68 m; draft 4.5 m.

MMSI: 431501835.

Date/timePositionNaut miles runAvg speedWind from/ knotsBaromVisibWave heightAir tempDewpointWater temp
2017-Nov-23 01:43N 34°06' E 134°59'  
2017-Nov-19 20:59N 35°29' E 139°56'0 0.1
2017-Nov-19 20:26N 35°29' E 139°56'0 0.0
2017-Nov-19 19:58N 35°29' E 139°56'0 0.0
2017-Nov-19 19:27N 35°29' E 139°56'0 0.0
2017-Nov-19 19:00N 35°29' E 139°56'0 0.0
2017-Nov-19 18:29N 35°29' E 139°56'3 5.7
2017-Nov-19 17:57N 35°28' E 139°52'511.9
2017-Nov-19 17:30N 35°25' E 139°47'612.2
2017-Nov-19 17:00N 35°19' E 139°44'611.7
2017-Nov-19 16:30N 35°14' E 139°47'611.3
2017-Nov-19 16:00N 35°09' E 139°45'510.3
2017-Nov-19 15:30N 35°04' E 139°43'510.8
2017-Nov-19 15:00N 35°01' E 139°37'610.9
2017-Nov-19 14:27N 34°57' E 139°31'  
2017-Nov-15 07:11N 34°37' E 135°02'211.8
2017-Nov-15 07:00N 34°36' E 135°05'511.2
2017-Nov-15 06:30N 34°34' E 135°11'711.4
2017-Nov-15 05:56N 34°33' E 135°18'1 2.0
2017-Nov-15 05:30N 34°32' E 135°19'0 0.0
2017-Nov-15 05:01N 34°32' E 135°19'3 6.1
2017-Nov-15 04:30N 34°33' E 135°23'2 0.3
2017-Nov-14 22:54N 34°33' E 135°25'3 7.8
2017-Nov-14 22:30N 34°33' E 135°21'2 1.5
2017-Nov-14 21:20N 34°32' E 135°20'0 0.0
2017-Nov-14 20:50N 34°32' E 135°20'0 0.1
2017-Nov-14 20:26N 34°32' E 135°20'0 0.0
2017-Nov-14 19:44N 34°32' E 135°20'0 0.0
2017-Nov-14 19:14N 34°32' E 135°20'0 0.0
2017-Nov-14 18:56N 34°32' E 135°20'0 0.0
2017-Nov-14 18:20N 34°32' E 135°20'0 0.0
2017-Nov-14 17:56N 34°32' E 135°20'0 0.1
2017-Nov-14 17:26N 34°32' E 135°20'0 0.0
2017-Nov-14 16:50N 34°32' E 135°20'2 6.4
2017-Nov-14 16:30N 34°31' E 135°18'612.1
2017-Nov-14 15:59N 34°27' E 135°12'611.6
2017-Nov-14 15:29N 34°23' E 135°07'1110.1
2017-Nov-14 14:25N 34°14' E 134°60'511.2
2017-Nov-14 13:59N 34°09' E 135°00'  

Dump ship's entire track history